Time;durP1;ratioP1;P1;durP2;ratioP2;P2;SDS_P1;SDS_P2;PMS_P1;PMS_P2;Temp;Humidity;BMP_temperature;BMP_pressure;BME280_temperature;BME280_humidity;BME280_pressure;Samples;Min_cycle;Max_cycle;Signal;HPM_P1;HPM_P2
2022/12/17 13:07:36;;;;;;;;;70.80;55.60;;;;;;;;5252281;28;8796;-70
2022/12/17 13:10:18;;;;;;;;;61.25;48.25;;;;;;;;5234361;28;8809;-70
2022/12/17 13:13:10;;;;;;;;;52.60;46.80;;;;;;;;5267612;28;8978;-70
2022/12/17 13:16:22;;;;;;;;;31.40;28.00;;;;;;;;5246300;28;9610;-71
2022/12/17 13:19:01;;;;;;;;;31.80;31.80;;;;;;;;5246613;28;8822;-70
2022/12/17 13:21:32;;;;;;;;;36.80;33.80;;;;;;;;5229159;28;9540;-70
2022/12/17 13:24:22;;;;;;;;;46.80;43.00;;;;;;;;5229632;28;8791;-70
2022/12/17 13:26:53;;;;;;;;;41.00;35.60;;;;;;;;5246410;28;8814;-70
2022/12/17 13:29:44;;;;;;;;;28.00;28.00;;;;;;;;5246781;28;8798;-70
2022/12/17 13:32:22;;;;;;;;;28.80;27.60;;;;;;;;5248376;28;8801;-70
2022/12/17 13:35:03;;;;;;;;;51.60;44.20;;;;;;;;5247295;28;8856;-69
2022/12/17 13:37:54;;;;;;;;;53.60;49.20;;;;;;;;5230102;28;8798;-71
2022/12/17 13:40:29;;;;;;;;;55.20;47.20;;;;;;;;5206262;28;8795;-70
2022/12/17 13:43:00;;;;;;;;;48.60;45.00;;;;;;;;5246214;28;8787;-70
2022/12/17 13:45:37;;;;;;;;;40.20;39.00;;;;;;;;5246181;28;8775;-70
2022/12/17 13:48:17;;;;;;;;;62.20;49.00;;;;;;;;5229901;28;8768;-72
2022/12/17 13:50:59;;;;;;;;;44.80;41.00;;;;;;;;5212559;28;8795;-73
2022/12/17 13:53:34;;;;;;;;;32.20;31.20;;;;;;;;5229608;28;8848;-72
2022/12/17 13:56:05;;;;;;;;;41.80;41.20;;;;;;;;5245661;28;8803;-73
2022/12/17 13:58:36;;;;;;;;;33.25;29.75;;;;;;;;5282680;28;8777;-74
2022/12/17 14:01:09;;;;;;;;;20.00;20.00;;;;;;;;5288085;28;11190;-73
2022/12/17 14:03:42;;;;;;;;;16.80;16.80;;;;;;;;5271090;28;9705;-72
2022/12/17 14:06:14;;;;;;;;;30.80;29.20;;;;;;;;5289722;28;8766;-72
2022/12/17 14:08:47;;;;;;;;;22.40;21.40;;;;;;;;5270892;28;8855;-72
2022/12/17 14:14:28;;;;;;;;;35.00;32.20;;;;;;;;5287817;28;8798;-72
2022/12/17 14:16:59;;;;;;;;;38.40;33.60;;;;;;;;5270301;28;8851;-72
2022/12/17 14:19:52;;;;;;;;;22.40;21.40;;;;;;;;5287735;28;8822;-72
2022/12/17 14:22:35;;;;;;;;;38.60;36.00;;;;;;;;5287543;28;8786;-72
2022/12/17 14:25:13;;;;;;;;;29.80;28.80;;;;;;;;5287238;28;8979;-72
2022/12/17 14:27:55;;;;;;;;;27.40;24.40;;;;;;;;5287987;28;8806;-72
2022/12/17 14:30:36;;;;;;;;;27.20;26.00;;;;;;;;5270445;28;8786;-72
2022/12/17 14:33:30;;;;;;;;;32.20;29.80;;;;;;;;5269880;28;8826;-72
2022/12/17 14:36:04;;;;;;;;;22.80;22.20;;;;;;;;5270326;28;8790;-73
2022/12/17 14:38:58;;;;;;;;;18.60;18.60;;;;;;;;5272967;28;8774;-72
2022/12/17 14:44:26;;;;;;;;;30.40;30.40;;;;;;;;5265328;28;8772;-71
2022/12/17 14:47:11;;;;;;;;;36.60;35.80;;;;;;;;5249136;28;8820;-72
2022/12/17 14:49:49;;;;;;;;;42.40;40.00;;;;;;;;5232478;28;9626;-72
2022/12/17 14:52:38;;;;;;;;;40.80;38.20;;;;;;;;5249560;28;8830;-71
2022/12/17 14:55:23;;;;;;;;;21.20;20.20;;;;;;;;5244850;28;8783;-72
2022/12/17 14:58:06;;;;;;;;;19.00;18.00;;;;;;;;5246536;28;8826;-66
2022/12/17 15:00:42;;;;;;;;;22.00;21.60;;;;;;;;5235760;28;8823;-66
2022/12/17 15:03:25;;;;;;;;;15.40;15.40;;;;;;;;5243133;28;8784;-66
2022/12/17 15:06:04;;;;;;;;;19.80;19.40;;;;;;;;5244523;28;8856;-67
2022/12/17 15:08:54;;;;;;;;;41.20;38.20;;;;;;;;5242845;28;8787;-66
2022/12/17 15:11:25;;;;;;;;;21.60;19.40;;;;;;;;5243168;28;8787;-66
2022/12/17 15:13:56;;;;;;;;;20.00;20.00;;;;;;;;5257789;28;8823;-70
2022/12/17 15:16:27;;;;;;;;;25.40;21.60;;;;;;;;5247132;28;9356;-71
2022/12/17 15:18:59;;;;;;;;;15.60;15.60;;;;;;;;5246887;28;8849;-69
2022/12/17 15:21:30;;;;;;;;;12.40;12.40;;;;;;;;5263566;28;8789;-69
2022/12/17 15:24:20;;;;;;;;;7.00;7.00;;;;;;;;5249556;28;9708;-70
2022/12/17 15:26:51;;;;;;;;;15.60;15.60;;;;;;;;5228117;28;8780;-67
2022/12/17 15:29:23;;;;;;;;;23.60;23.00;;;;;;;;5245353;28;8807;-66
2022/12/17 15:31:54;;;;;;;;;16.00;16.00;;;;;;;;5227689;28;8804;-68
2022/12/17 15:34:25;;;;;;;;;19.40;18.00;;;;;;;;5242100;28;8820;-71
2022/12/17 15:37:15;;;;;;;;;25.20;19.20;;;;;;;;5251988;28;8827;-68
2022/12/17 15:39:46;;;;;;;;;41.40;39.60;;;;;;;;5241120;28;8804;-67
2022/12/17 15:45:26;;;;;;;;;51.60;47.00;;;;;;;;5245820;28;8794;-68
2022/12/17 15:47:57;;;;;;;;;51.00;47.60;;;;;;;;5248260;28;8810;-67
2022/12/17 15:50:28;;;;;;;;;32.50;31.75;;;;;;;;5248228;28;8806;-67
2022/12/17 15:52:59;;;;;;;;;30.20;28.60;;;;;;;;5251123;28;8837;-67
2022/12/17 15:55:30;;;;;;;;;13.50;13.00;;;;;;;;5270774;28;8784;-67
2022/12/17 15:58:01;;;;;;;;;37.00;32.20;;;;;;;;5251998;28;11451;-68
2022/12/17 16:00:32;;;;;;;;;7.40;7.00;;;;;;;;5275305;28;8841;-68
2022/12/17 16:03:03;;;;;;;;;15.40;14.40;;;;;;;;5275358;28;8789;-67
2022/12/17 16:05:34;;;;;;;;;10.20;10.20;;;;;;;;5258299;28;9550;-66
2022/12/17 16:08:06;;;;;;;;;21.00;19.80;;;;;;;;5259141;28;8880;-67
2022/12/17 16:10:40;;;;;;;;;19.80;19.80;;;;;;;;5232566;28;8815;-68
2022/12/17 16:13:29;;;;;;;;;24.40;22.80;;;;;;;;5238005;28;8831;-67
2022/12/17 16:16:00;;;;;;;;;24.00;23.75;;;;;;;;5239517;28;9576;-67
2022/12/17 16:18:31;;;;;;;;;29.75;27.50;;;;;;;;5248642;28;9880;-66
2022/12/17 16:21:20;;;;;;;;;20.60;20.60;;;;;;;;5262360;28;11263;-66
2022/12/17 16:23:51;;;;;;;;;21.25;19.00;;;;;;;;5243582;28;8950;-67
2022/12/17 16:26:23;;;;;;;;;11.20;11.20;;;;;;;;5233964;28;11098;-66
2022/12/17 16:28:55;;;;;;;;;12.00;12.00;;;;;;;;5258658;28;8803;-68
2022/12/17 16:31:26;;;;;;;;;13.60;12.60;;;;;;;;5245421;28;8807;-68
2022/12/17 16:33:57;;;;;;;;;18.40;18.00;;;;;;;;5225620;28;8908;-67
2022/12/17 16:36:28;;;;;;;;;9.75;9.75;;;;;;;;5244631;28;8830;-67
2022/12/17 16:38:59;;;;;;;;;11.20;11.20;;;;;;;;5257465;28;9424;-66
2022/12/17 16:41:31;;;;;;;;;9.25;9.25;;;;;;;;5251104;28;8788;-68
2022/12/17 16:44:02;;;;;;;;;10.80;10.80;;;;;;;;5234720;28;9722;-67
2022/12/17 16:46:35;;;;;;;;;15.60;14.80;;;;;;;;5267418;28;8777;-67
2022/12/17 16:49:24;;;;;;;;;12.80;11.60;;;;;;;;5247787;28;8818;-67
2022/12/17 16:51:55;;;;;;;;;9.50;9.25;;;;;;;;5246992;28;8814;-67
2022/12/17 16:54:28;;;;;;;;;9.40;9.00;;;;;;;;5229613;28;8960;-67
2022/12/17 16:57:00;;;;;;;;;10.80;10.80;;;;;;;;5211419;28;8827;-70
2022/12/17 16:59:31;;;;;;;;;10.00;10.00;;;;;;;;5211823;28;8806;-69
2022/12/17 17:02:02;;;;;;;;;9.00;9.00;;;;;;;;5245264;28;8787;-70
2022/12/17 17:04:33;;;;;;;;;4.60;4.60;;;;;;;;5228523;28;8803;-69
2022/12/17 17:07:08;;;;;;;;;9.00;8.60;;;;;;;;5211849;28;8881;-69
2022/12/17 17:09:39;;;;;;;;;22.80;21.80;;;;;;;;5211376;28;8795;-69
2022/12/17 17:12:11;;;;;;;;;15.00;15.00;;;;;;;;5228221;28;8798;-70
2022/12/17 17:14:43;;;;;;;;;7.80;7.80;;;;;;;;5228084;28;9514;-69
2022/12/17 17:17:14;;;;;;;;;10.60;10.20;;;;;;;;5246196;28;8835;-71
2022/12/17 17:19:45;;;;;;;;;32.50;32.00;;;;;;;;5216767;28;8846;-71
2022/12/17 17:22:16;;;;;;;;;17.80;17.00;;;;;;;;5227624;28;11609;-70
2022/12/17 17:24:47;;;;;;;;;8.50;8.50;;;;;;;;5261461;28;8899;-70
2022/12/17 17:27:18;;;;;;;;;1.50;1.50;;;;;;;;5263913;28;11610;-70
2022/12/17 17:29:49;;;;;;;;;6.75;6.50;;;;;;;;5233579;28;8815;-70
2022/12/17 17:32:19;;;;;;;;;7.00;7.00;;;;;;;;5247439;28;12140;-70
2022/12/17 17:34:50;;;;;;;;;8.60;8.60;;;;;;;;5261236;28;9545;-71
2022/12/17 17:37:22;;;;;;;;;8.80;8.20;;;;;;;;5233332;28;9521;-71
2022/12/17 17:39:53;;;;;;;;;8.40;8.40;;;;;;;;5248013;28;9501;-71
2022/12/17 17:42:24;;;;;;;;;7.40;7.40;;;;;;;;5252627;28;8807;-70
2022/12/17 17:44:55;;;;;;;;;5.40;5.40;;;;;;;;5245464;28;8781;-71
2022/12/17 17:47:28;;;;;;;;;6.00;6.00;;;;;;;;5254928;28;8868;-71
2022/12/17 17:49:59;;;;;;;;;21.00;19.00;;;;;;;;5236591;28;8780;-70
2022/12/17 17:52:49;;;;;;;;;22.40;19.40;;;;;;;;5247307;28;8846;-71
2022/12/17 17:55:20;;;;;;;;;13.00;12.80;;;;;;;;5245639;28;8836;-71
2022/12/17 17:57:51;;;;;;;;;21.60;20.20;;;;;;;;5230872;28;8795;-70
2022/12/17 18:00:40;;;;;;;;;17.20;17.20;;;;;;;;5236594;28;8795;-70
2022/12/17 18:03:11;;;;;;;;;12.00;12.00;;;;;;;;5223367;28;8816;-69
2022/12/17 18:05:42;;;;;;;;;15.00;15.00;;;;;;;;5246221;28;8803;-71
2022/12/17 18:08:13;;;;;;;;;15.25;15.00;;;;;;;;5265955;28;9521;-71
2022/12/17 18:10:53;;;;;;;;;14.60;14.60;;;;;;;;5249960;28;11486;-70
2022/12/17 18:16:14;;;;;;;;;9.20;7.80;;;;;;;;5249539;28;8903;-71
2022/12/17 18:18:45;;;;;;;;;7.40;7.40;;;;;;;;5249726;28;8812;-71
2022/12/17 18:21:35;;;;;;;;;8.60;7.60;;;;;;;;5245688;28;8787;-71
2022/12/17 18:24:09;;;;;;;;;4.80;4.80;;;;;;;;5228844;28;8830;-70
2022/12/17 18:26:41;;;;;;;;;7.80;7.80;;;;;;;;5246491;28;8779;-70
2022/12/17 18:29:20;;;;;;;;;4.80;4.80;;;;;;;;5229055;28;8790;-70
2022/12/17 18:31:51;;;;;;;;;20.60;20.60;;;;;;;;5245470;28;8784;-71
2022/12/17 18:34:26;;;;;;;;;24.20;22.60;;;;;;;;5228736;28;8805;-71
2022/12/17 18:36:57;;;;;;;;;12.40;12.40;;;;;;;;5246308;28;8810;-70
2022/12/17 18:39:28;;;;;;;;;10.40;10.40;;;;;;;;5229033;28;8779;-69
2022/12/17 18:44:49;;;;;;;;;8.60;8.60;;;;;;;;5246803;28;9185;-72
2022/12/17 18:47:20;;;;;;;;;14.00;14.00;;;;;;;;5228357;28;8779;-70
2022/12/17 18:50:11;;;;;;;;;9.20;9.20;;;;;;;;5245306;28;9604;-70
2022/12/17 18:52:45;;;;;;;;;6.40;6.40;;;;;;;;5245252;28;8824;-70
2022/12/17 18:55:16;;;;;;;;;102.25;79.50;;;;;;;;5228777;28;8797;-69
2022/12/17 18:57:47;;;;;;;;;19.40;17.20;;;;;;;;5228170;28;9538;-71
2022/12/17 19:00:18;;;;;;;;;8.60;8.60;;;;;;;;5211980;28;9533;-70
2022/12/17 19:02:51;;;;;;;;;9.20;9.20;;;;;;;;5246237;28;8768;-70
2022/12/17 19:05:22;;;;;;;;;4.00;4.00;;;;;;;;5228352;28;8779;-70
2022/12/17 19:07:53;;;;;;;;;8.60;7.00;;;;;;;;5245015;28;8875;-70
2022/12/17 19:10:25;;;;;;;;;12.20;12.20;;;;;;;;5228477;28;9502;-70
2022/12/17 19:12:56;;;;;;;;;9.75;9.75;;;;;;;;5245091;28;8783;-70
2022/12/17 19:15:27;;;;;;;;;10.80;10.60;;;;;;;;5212016;28;8798;-71
2022/12/17 19:17:58;;;;;;;;;9.25;9.25;;;;;;;;5218964;28;8885;-70
2022/12/17 19:20:29;;;;;;;;;15.25;15.25;;;;;;;;5256354;28;11498;-71
2022/12/17 19:23:00;;;;;;;;;7.50;7.50;;;;;;;;5245733;28;8822;-70
2022/12/17 19:25:31;;;;;;;;;16.40;15.00;;;;;;;;5265402;28;10927;-70
2022/12/17 19:28:02;;;;;;;;;11.00;9.50;;;;;;;;5234356;28;9490;-69
2022/12/17 19:30:33;;;;;;;;;6.00;6.00;;;;;;;;5268101;28;8781;-69
2022/12/17 19:33:22;;;;;;;;;6.00;6.00;;;;;;;;5250074;28;8827;-69
2022/12/17 19:36:00;;;;;;;;;7.80;7.80;;;;;;;;5236837;28;8798;-69
2022/12/17 19:38:32;;;;;;;;;14.20;13.00;;;;;;;;5240716;28;8797;-69
2022/12/17 19:41:04;;;;;;;;;9.00;9.00;;;;;;;;5224143;28;9514;-69
2022/12/17 19:43:36;;;;;;;;;5.20;5.20;;;;;;;;5247368;28;8785;-70
2022/12/17 19:46:09;;;;;;;;;9.80;9.80;;;;;;;;5253355;28;8775;-69
2022/12/17 19:48:40;;;;;;;;;21.60;21.60;;;;;;;;5254640;28;8850;-70
2022/12/17 19:51:12;;;;;;;;;25.20;24.00;;;;;;;;5216810;28;8771;-70
2022/12/17 19:53:44;;;;;;;;;12.40;12.20;;;;;;;;5236378;28;9593;-70
2022/12/17 19:56:17;;;;;;;;;13.00;12.80;;;;;;;;5230807;28;8807;-70
2022/12/17 19:58:52;;;;;;;;;7.40;7.40;;;;;;;;5215078;28;8819;-69
2022/12/17 20:01:25;;;;;;;;;2.80;2.20;;;;;;;;5232850;28;8775;-68
2022/12/17 20:03:56;;;;;;;;;11.20;10.40;;;;;;;;5235679;28;9467;-69
2022/12/17 20:06:28;;;;;;;;;9.00;9.00;;;;;;;;5237951;28;8836;-70
2022/12/17 20:09:00;;;;;;;;;60.60;50.80;;;;;;;;5256609;28;8811;-69
2022/12/17 20:11:49;;;;;;;;;15.60;15.00;;;;;;;;5235679;28;8815;-67
2022/12/17 20:14:33;;;;;;;;;9.20;9.20;;;;;;;;5233402;28;8861;-68
2022/12/17 20:17:07;;;;;;;;;9.40;9.00;;;;;;;;5231502;28;8795;-69
2022/12/17 20:19:38;;;;;;;;;4.00;4.00;;;;;;;;5235005;28;8822;-68
2022/12/17 20:22:09;;;;;;;;;7.40;7.40;;;;;;;;5225384;28;9550;-71
2022/12/17 20:24:40;;;;;;;;;8.40;8.40;;;;;;;;5214769;28;8795;-69
2022/12/17 20:27:11;;;;;;;;;9.00;9.00;;;;;;;;5251337;28;8792;-69
2022/12/17 20:29:42;;;;;;;;;16.00;14.50;;;;;;;;5252479;28;8802;-69
2022/12/17 20:32:13;;;;;;;;;10.00;9.00;;;;;;;;5233109;28;8807;-69
2022/12/17 20:34:44;;;;;;;;;6.20;6.00;;;;;;;;5242011;28;8899;-69
2022/12/17 20:37:15;;;;;;;;;12.60;11.60;;;;;;;;5249744;28;8814;-68
2022/12/17 20:39:46;;;;;;;;;10.80;10.80;;;;;;;;5235039;28;8799;-68
2022/12/17 20:42:35;;;;;;;;;11.20;10.80;;;;;;;;5268752;28;8800;-68
2022/12/17 20:45:07;;;;;;;;;6.60;6.20;;;;;;;;5229074;28;8814;-70
2022/12/17 20:47:38;;;;;;;;;8.80;8.80;;;;;;;;5247342;28;8795;-69
2022/12/17 20:50:09;;;;;;;;;16.40;15.60;;;;;;;;5248706;28;8819;-70
2022/12/17 20:52:40;;;;;;;;;4.40;4.00;;;;;;;;5230596;28;8927;-70
2022/12/17 20:55:29;;;;;;;;;6.40;6.40;;;;;;;;5246359;28;8818;-71
2022/12/17 20:58:00;;;;;;;;;6.80;6.80;;;;;;;;5238256;28;8826;-69
2022/12/17 21:00:32;;;;;;;;;15.60;15.40;;;;;;;;5228496;28;8807;-71
2022/12/17 21:03:03;;;;;;;;;9.80;9.00;;;;;;;;5230450;28;8801;-71
2022/12/17 21:05:34;;;;;;;;;8.20;8.20;;;;;;;;5230907;28;8807;-69
2022/12/17 21:08:05;;;;;;;;;9.40;9.40;;;;;;;;5246692;28;8872;-69
2022/12/17 21:10:37;;;;;;;;;9.60;9.20;;;;;;;;5247149;28;8793;-69
2022/12/17 21:16:27;;;;;;;;;81.20;64.60;;;;;;;;5255040;28;8834;-69
2022/12/17 21:18:59;;;;;;;;;23.20;21.40;;;;;;;;5250968;28;8808;-69
2022/12/17 21:21:32;;;;;;;;;13.40;13.40;;;;;;;;5246650;28;8771;-69
2022/12/17 21:24:05;;;;;;;;;12.20;12.00;;;;;;;;5213523;28;8788;-69
2022/12/17 21:26:39;;;;;;;;;41.40;34.20;;;;;;;;5213860;28;8909;-70
2022/12/17 21:29:11;;;;;;;;;24.40;24.00;;;;;;;;5213423;28;8922;-70
2022/12/17 21:31:46;;;;;;;;;6.20;4.00;;;;;;;;5246474;28;8795;-69
2022/12/17 21:34:22;;;;;;;;;9.00;9.00;;;;;;;;5229746;28;8913;-70
2022/12/17 21:36:53;;;;;;;;;6.60;6.60;;;;;;;;5229886;28;8833;-70
2022/12/17 21:39:24;;;;;;;;;24.80;24.80;;;;;;;;5246394;28;8808;-69
2022/12/17 21:44:45;;;;;;;;;10.80;10.80;;;;;;;;5256320;28;9008;-70
2022/12/17 21:47:17;;;;;;;;;8.40;8.20;;;;;;;;5245381;28;8791;-70
2022/12/17 21:49:48;;;;;;;;;12.00;12.00;;;;;;;;5246063;28;8791;-70
2022/12/17 21:52:38;;;;;;;;;13.00;12.80;;;;;;;;5231655;28;10663;-70
2022/12/17 21:55:09;;;;;;;;;11.80;11.80;;;;;;;;5245902;28;8791;-69
2022/12/17 21:57:41;;;;;;;;;27.20;27.20;;;;;;;;5255334;28;8816;-71
2022/12/17 22:00:12;;;;;;;;;22.80;20.00;;;;;;;;5233614;28;8784;-70
2022/12/17 22:02:43;;;;;;;;;13.40;13.40;;;;;;;;5233418;28;8899;-71
2022/12/17 22:05:14;;;;;;;;;12.00;12.00;;;;;;;;5249906;28;8910;-71
2022/12/17 22:07:45;;;;;;;;;17.60;17.60;;;;;;;;5266729;28;9515;-72
2022/12/17 22:10:17;;;;;;;;;11.20;11.20;;;;;;;;5250025;28;8832;-72
2022/12/17 22:15:38;;;;;;;;;7.40;7.00;;;;;;;;5245665;28;8783;-71
2022/12/17 22:18:09;;;;;;;;;6.00;6.00;;;;;;;;5245214;28;8819;-71
2022/12/17 22:20:40;;;;;;;;;8.20;8.20;;;;;;;;5212524;28;9576;-71
2022/12/17 22:23:11;;;;;;;;;9.20;8.80;;;;;;;;5247041;28;8814;-70
2022/12/17 22:26:01;;;;;;;;;15.00;15.00;;;;;;;;5262398;28;8771;-71
2022/12/17 22:28:32;;;;;;;;;12.60;12.60;;;;;;;;5247558;28;8783;-69
2022/12/17 22:33:53;;;;;;;;;18.80;18.00;;;;;;;;5258396;28;8802;-69
2022/12/17 22:36:28;;;;;;;;;9.60;8.80;;;;;;;;5254269;28;8805;-71
2022/12/17 22:39:00;;;;;;;;;43.40;41.40;;;;;;;;5245582;28;8799;-71
2022/12/17 22:44:21;;;;;;;;;18.60;18.60;;;;;;;;5229326;28;8767;-71
2022/12/17 22:46:52;;;;;;;;;11.60;11.20;;;;;;;;5228549;28;9502;-72
2022/12/17 22:49:23;;;;;;;;;11.20;10.40;;;;;;;;5228549;28;8826;-72
2022/12/17 22:51:55;;;;;;;;;12.40;10.80;;;;;;;;5228242;28;8822;-72
2022/12/17 22:54:26;;;;;;;;;15.20;14.60;;;;;;;;5244691;28;8794;-72
2022/12/17 22:57:16;;;;;;;;;13.40;13.40;;;;;;;;5245089;28;8811;-71
2022/12/17 22:59:47;;;;;;;;;17.80;17.80;;;;;;;;5244883;28;8775;-71
2022/12/17 23:02:37;;;;;;;;;13.80;13.80;;;;;;;;5230906;28;8868;-71
2022/12/17 23:05:08;;;;;;;;;4.00;4.00;;;;;;;;5229014;28;8807;-71
2022/12/17 23:07:39;;;;;;;;;13.80;13.80;;;;;;;;5243441;28;8798;-71
2022/12/17 23:10:10;;;;;;;;;10.40;10.40;;;;;;;;5245995;28;8916;-71
2022/12/17 23:13:00;;;;;;;;;20.00;17.00;;;;;;;;5244891;28;8857;-71
2022/12/17 23:15:49;;;;;;;;;22.40;21.20;;;;;;;;5230932;28;8807;-70
2022/12/17 23:18:40;;;;;;;;;20.20;20.20;;;;;;;;5230719;28;8941;-70
2022/12/17 23:21:13;;;;;;;;;15.00;14.20;;;;;;;;5228104;28;8767;-69
2022/12/17 23:24:03;;;;;;;;;12.00;9.40;;;;;;;;5244947;28;8775;-69
2022/12/17 23:26:35;;;;;;;;;6.00;6.00;;;;;;;;5244445;28;9565;-70
2022/12/17 23:29:07;;;;;;;;;7.00;7.00;;;;;;;;5244708;28;8763;-70
2022/12/17 23:31:39;;;;;;;;;9.00;9.00;;;;;;;;5227957;28;9629;-70
2022/12/17 23:34:10;;;;;;;;;7.40;7.40;;;;;;;;5228230;28;8875;-71
2022/12/17 23:36:41;;;;;;;;;9.00;9.00;;;;;;;;5228116;28;9615;-70
2022/12/17 23:39:13;;;;;;;;;7.00;7.00;;;;;;;;5211582;28;8787;-70
2022/12/17 23:41:44;;;;;;;;;9.00;9.00;;;;;;;;5260835;28;8798;-70
2022/12/17 23:44:15;;;;;;;;;12.20;11.20;;;;;;;;5231858;28;8784;-70
2022/12/17 23:46:46;;;;;;;;;11.80;11.80;;;;;;;;5244542;28;8813;-71
2022/12/17 23:49:17;;;;;;;;;12.40;11.80;;;;;;;;5227940;28;8902;-70
2022/12/17 23:51:49;;;;;;;;;20.20;18.20;;;;;;;;5227565;28;8860;-72
2022/12/17 23:54:20;;;;;;;;;26.40;26.40;;;;;;;;5246582;28;8813;-71
2022/12/17 23:56:51;;;;;;;;;10.00;9.80;;;;;;;;5234337;28;8823;-70
2022/12/17 23:59:22;;;;;;;;;3.00;3.00;;;;;;;;5228001;28;8919;-70
